Time;durP1;ratioP1;P1;durP2;ratioP2;P2;SDS_P1;SDS_P2;PMS_P1;PMS_P2;Temp;Humidity;BMP_temperature;BMP_pressure;BME280_temperature;BME280_humidity;BME280_pressure;Samples;Min_cycle;Max_cycle;Signal;HPM_P1;HPM_P2
2023/06/03 00:02:25;;;;;;;16.33;3.42;;;11.40;99.90;;;;;;5033470;28;20462;-57
2023/06/03 00:04:52;;;;;;;17.73;4.60;;;11.40;99.90;;;;;;5033349;28;20107;-58
2023/06/03 00:07:19;;;;;;;20.08;4.60;;;11.40;99.90;;;;;;5033453;28;20080;-55
2023/06/03 00:09:46;;;;;;;20.35;4.43;;;11.30;99.90;;;;;;5033475;28;20041;-53
2023/06/03 00:12:13;;;;;;;16.08;4.10;;;11.30;99.90;;;;;;5033361;28;20044;-57
2023/06/03 00:14:40;;;;;;;25.13;4.65;;;11.20;99.90;;;;;;5033636;28;20040;-56
2023/06/03 00:17:07;;;;;;;15.15;4.40;;;11.10;99.90;;;;;;5033485;28;20055;-55
2023/06/03 00:19:34;;;;;;;15.43;3.60;;;11.10;99.90;;;;;;5033442;28;20072;-57
2023/06/03 00:22:02;;;;;;;15.77;3.95;;;11.10;99.90;;;;;;5033789;28;20037;-52
2023/06/03 00:24:28;;;;;;;20.80;4.30;;;11.00;99.90;;;;;;5033332;28;20060;-55
2023/06/03 00:26:55;;;;;;;19.38;4.20;;;11.00;99.90;;;;;;5033321;28;20441;-55
2023/06/03 00:29:22;;;;;;;15.90;4.25;;;10.90;99.90;;;;;;5033218;28;20041;-52
2023/06/03 00:31:49;;;;;;;21.05;4.65;;;10.80;99.90;;;;;;5032037;28;20493;-54
2023/06/03 00:34:16;;;;;;;17.92;3.90;;;10.80;99.90;;;;;;5033805;28;20041;-57
2023/06/03 00:36:43;;;;;;;17.17;4.70;;;10.80;99.90;;;;;;5031920;28;20092;-56
2023/06/03 00:39:10;;;;;;;21.95;4.85;;;10.70;99.90;;;;;;5031922;28;20128;-55
2023/06/03 00:41:37;;;;;;;23.30;5.20;;;10.70;99.90;;;;;;5033623;28;20447;-53
2023/06/03 00:44:04;;;;;;;19.27;4.20;;;10.70;99.90;;;;;;5032454;28;20044;-55
2023/06/03 00:46:31;;;;;;;19.10;4.53;;;10.60;99.90;;;;;;5031780;28;20443;-57
2023/06/03 00:48:58;;;;;;;18.25;4.35;;;10.60;99.90;;;;;;5032435;28;20042;-52
2023/06/03 00:51:24;;;;;;;18.73;4.68;;;10.60;99.90;;;;;;5032523;28;20072;-54
2023/06/03 00:53:51;;;;;;;15.68;4.53;;;10.60;99.90;;;;;;5033882;28;20044;-55
2023/06/03 00:56:18;;;;;;;18.35;4.28;;;10.50;99.90;;;;;;5015386;28;20140;-58
2023/06/03 00:58:45;;;;;;;17.80;4.45;;;10.50;99.90;;;;;;5033586;28;20044;-55
2023/06/03 01:01:13;;;;;;;19.40;4.38;;;10.50;99.90;;;;;;5033549;28;20052;-53
2023/06/03 01:03:42;;;;;;;13.05;4.25;;;10.50;99.90;;;;;;5033310;28;20040;-56
2023/06/03 01:06:14;;;;;;;22.95;4.90;;;10.40;99.90;;;;;;5031698;28;20045;-52
2023/06/03 01:08:43;;;;;;;23.02;4.93;;;10.40;99.90;;;;;;5033246;28;20091;-56
2023/06/03 01:11:10;;;;;;;22.63;5.07;;;10.40;99.90;;;;;;5032294;28;20481;-53
2023/06/03 01:13:37;;;;;;;16.70;4.38;;;10.30;99.90;;;;;;5036571;28;20382;-57
2023/06/03 01:16:04;;;;;;;16.08;4.38;;;10.30;99.90;;;;;;5037040;28;20109;-53
2023/06/03 01:18:33;;;;;;;18.38;4.53;;;10.30;99.90;;;;;;5035655;28;20391;-55
2023/06/03 01:21:00;;;;;;;19.60;5.75;;;10.40;99.90;;;;;;5035074;28;20049;-55
2023/06/03 01:23:33;;;;;;;21.17;5.30;;;10.40;99.90;;;;;;5036516;28;20038;-55
2023/06/03 01:26:00;;;;;;;23.02;4.78;;;10.30;99.90;;;;;;5036489;28;20408;-54
2023/06/03 01:28:27;;;;;;;21.75;5.43;;;10.30;99.90;;;;;;5034917;28;20041;-54
2023/06/03 01:30:54;;;;;;;23.33;4.57;;;10.30;99.90;;;;;;5036317;28;20052;-56
2023/06/03 01:33:21;;;;;;;18.80;5.03;;;10.30;99.90;;;;;;5036479;28;20033;-53
2023/06/03 01:35:48;;;;;;;22.50;4.95;;;10.30;99.90;;;;;;5036164;28;20400;-55
2023/06/03 01:38:15;;;;;;;15.70;4.63;;;10.20;99.90;;;;;;5036455;28;20065;-55
2023/06/03 01:40:41;;;;;;;15.60;4.65;;;10.20;99.90;;;;;;5036534;28;20041;-54
2023/06/03 01:43:09;;;;;;;20.15;4.50;;;10.20;99.90;;;;;;5036469;28;20045;-55
2023/06/03 01:45:36;;;;;;;18.50;4.88;;;10.10;99.90;;;;;;5018998;28;20045;-56
2023/06/03 01:48:02;;;;;;;19.25;4.75;;;10.10;99.90;;;;;;5036226;28;20045;-54
2023/06/03 01:50:29;;;;;;;22.30;5.05;;;10.10;99.90;;;;;;5034830;28;20132;-57
2023/06/03 01:52:56;;;;;;;19.08;4.95;;;10.00;99.90;;;;;;5018543;28;20393;-53
2023/06/03 01:55:23;;;;;;;17.65;4.82;;;10.00;99.90;;;;;;5034682;28;20095;-55
2023/06/03 01:57:50;;;;;;;19.23;5.00;;;9.90;99.90;;;;;;5034696;28;20048;-56
2023/06/03 02:00:17;;;;;;;17.58;4.80;;;9.90;99.90;;;;;;5035065;28;20057;-52
2023/06/03 02:02:47;;;;;;;24.15;5.32;;;9.80;99.90;;;;;;5034367;28;20041;-50
2023/06/03 02:05:15;;;;;;;18.83;5.57;;;9.80;99.90;;;;;;5018045;28;20136;-56
2023/06/03 02:07:41;;;;;;;23.88;5.57;;;9.80;99.90;;;;;;5035294;28;20038;-53
2023/06/03 02:10:08;;;;;;;21.67;5.20;;;9.70;99.90;;;;;;5035401;28;20041;-54
2023/06/03 02:12:35;;;;;;;22.40;5.35;;;9.70;99.90;;;;;;5034645;28;20132;-56
2023/06/03 02:15:12;;;;;;;22.67;5.22;;;9.70;99.90;;;;;;5034390;28;20053;-52
2023/06/03 02:17:40;;;;;;;19.02;5.20;;;9.70;99.90;;;;;;5035498;28;20122;-56
2023/06/03 02:20:08;;;;;;;23.60;5.50;;;9.60;99.90;;;;;;5034289;28;20044;-56
2023/06/03 02:22:35;;;;;;;20.60;5.63;;;9.60;99.90;;;;;;5035729;28;20076;-52
2023/06/03 02:25:03;;;;;;;21.08;5.28;;;9.50;99.90;;;;;;5033903;28;20057;-53
2023/06/03 02:27:31;;;;;;;24.48;6.18;;;9.50;99.90;;;;;;5035291;28;20389;-55
2023/06/03 02:29:58;;;;;;;23.08;6.75;;;9.50;99.90;;;;;;5035672;28;20404;-55
2023/06/03 02:32:24;;;;;;;24.75;6.85;;;9.40;99.90;;;;;;5035457;28;20045;-54
2023/06/03 02:34:52;;;;;;;20.02;6.60;;;9.40;99.90;;;;;;5035362;28;20056;-54
2023/06/03 02:37:19;;;;;;;18.58;5.65;;;9.40;99.90;;;;;;5034217;28;20168;-56
2023/06/03 02:39:47;;;;;;;20.08;5.07;;;9.40;99.90;;;;;;5035111;28;20425;-56
2023/06/03 02:42:14;;;;;;;23.10;5.65;;;9.30;99.90;;;;;;5033667;28;20128;-57
2023/06/03 02:44:41;;;;;;;21.38;5.30;;;9.30;99.90;;;;;;5033562;28;20044;-57
2023/06/03 02:47:07;;;;;;;19.35;5.20;;;9.30;99.90;;;;;;5033377;28;20074;-54
2023/06/03 02:49:36;;;;;;;21.80;5.60;;;9.30;99.90;;;;;;5034692;28;20037;-54
2023/06/03 02:52:04;;;;;;;21.80;5.43;;;9.30;99.90;;;;;;5034053;28;20089;-53
2023/06/03 02:54:31;;;;;;;21.00;5.63;;;9.30;99.90;;;;;;5035298;28;20041;-54
2023/06/03 02:56:58;;;;;;;23.83;5.47;;;9.30;99.90;;;;;;5034564;28;20072;-54
2023/06/03 02:59:25;;;;;;;17.67;5.38;;;9.20;99.90;;;;;;5035224;28;20056;-55
2023/06/03 03:01:52;;;;;;;17.23;4.63;;;9.20;99.90;;;;;;5033352;28;20115;-57
2023/06/03 03:04:20;;;;;;;20.00;5.55;;;9.20;99.90;;;;;;5017492;28;20045;-53
2023/06/03 03:06:49;;;;;;;24.23;6.22;;;9.20;99.90;;;;;;5034939;28;20529;-56
2023/06/03 03:09:16;;;;;;;20.95;5.55;;;9.20;99.90;;;;;;5033728;28;20044;-56
2023/06/03 03:11:45;;;;;;;24.13;6.47;;;9.30;99.90;;;;;;5033084;28;20041;-50
2023/06/03 03:14:13;;;;;;;18.67;6.15;;;9.30;99.90;;;;;;5033384;28;20045;-55
2023/06/03 03:16:40;;;;;;;21.42;5.28;;;9.30;99.90;;;;;;5033201;28;20461;-52
2023/06/03 03:19:07;;;;;;;19.75;5.63;;;9.30;99.90;;;;;;5033552;28;20099;-56
2023/06/03 03:21:34;;;;;;;22.10;5.53;;;9.30;99.90;;;;;;5033529;28;20069;-54
2023/06/03 03:24:06;;;;;;;22.20;5.82;;;9.30;99.90;;;;;;5033231;28;20092;-55
2023/06/03 03:26:36;;;;;;;23.00;5.68;;;9.30;99.90;;;;;;5034320;28;20040;-52
2023/06/03 03:29:04;;;;;;;16.92;4.85;;;9.40;99.90;;;;;;5033203;28;20128;-56
2023/06/03 03:31:30;;;;;;;22.50;5.72;;;9.40;99.90;;;;;;5034229;28;20041;-55
2023/06/03 03:33:58;;;;;;;20.90;5.80;;;9.40;99.90;;;;;;5033395;28;20132;-52
2023/06/03 03:36:28;;;;;;;23.75;6.40;;;9.40;99.90;;;;;;5032217;28;20120;-55
2023/06/03 03:39:02;;;;;;;23.83;5.55;;;9.40;99.90;;;;;;5033088;28;20049;-53
2023/06/03 03:41:32;;;;;;;21.60;5.03;;;9.30;99.90;;;;;;5033029;28;20049;-55
2023/06/03 03:44:00;;;;;;;20.73;5.78;;;9.30;99.90;;;;;;5033091;28;20140;-53
2023/06/03 03:46:27;;;;;;;27.40;5.90;;;9.40;99.90;;;;;;5032550;28;20045;-55
2023/06/03 03:48:54;;;;;;;25.63;5.75;;;9.40;99.90;;;;;;5032389;28;20048;-54
2023/06/03 03:51:22;;;;;;;22.65;5.22;;;9.50;99.90;;;;;;5032699;28;20087;-54
2023/06/03 03:53:50;;;;;;;23.05;5.65;;;9.50;99.90;;;;;;5032765;28;20133;-51
2023/06/03 03:56:25;;;;;;;23.52;5.07;;;9.60;99.90;;;;;;5033689;28;20500;-53
2023/06/03 03:58:56;;;;;;;20.70;5.40;;;9.60;99.90;;;;;;5032951;28;20411;-50
2023/06/03 04:01:28;;;;;;;19.70;5.47;;;9.70;99.90;;;;;;5032734;28;20053;-50
2023/06/03 04:04:03;;;;;;;22.02;5.35;;;9.70;99.90;;;;;;5032578;28;20064;-52
2023/06/03 04:06:32;;;;;;;22.05;5.43;;;9.80;99.90;;;;;;5033710;28;20052;-56
2023/06/03 04:09:00;;;;;;;20.27;5.07;;;9.80;99.90;;;;;;5032143;28;20038;-57
2023/06/03 04:11:27;;;;;;;27.23;6.78;;;9.80;99.90;;;;;;5033678;28;20400;-55
2023/06/03 04:13:55;;;;;;;20.10;5.85;;;9.90;99.90;;;;;;5032582;28;20037;-57
2023/06/03 04:16:24;;;;;;;19.23;6.55;;;9.90;99.90;;;;;;5032285;28;20428;-56
2023/06/03 04:18:51;;;;;;;17.52;5.65;;;9.90;99.90;;;;;;5033945;28;20038;-56
2023/06/03 04:21:19;;;;;;;25.35;6.25;;;10.00;99.90;;;;;;5032187;28;20520;-51
2023/06/03 04:23:46;;;;;;;23.85;6.47;;;10.00;99.90;;;;;;5032502;28;20137;-50
2023/06/03 04:26:13;;;;;;;22.98;6.18;;;10.00;99.90;;;;;;5032283;28;20045;-52
2023/06/03 04:28:40;;;;;;;25.52;6.47;;;10.00;99.90;;;;;;5032177;28;20132;-51
2023/06/03 04:31:07;;;;;;;16.90;5.32;;;10.00;99.90;;;;;;5032224;28;20072;-53
2023/06/03 04:33:34;;;;;;;24.20;6.47;;;10.10;99.90;;;;;;5033597;28;20080;-53
2023/06/03 04:36:03;;;;;;;23.25;5.78;;;10.10;99.90;;;;;;5032339;28;20037;-55
2023/06/03 04:38:30;;;;;;;25.75;6.70;;;10.10;99.90;;;;;;5032575;28;20132;-54
2023/06/03 04:40:57;;;;;;;23.25;6.75;;;10.10;99.90;;;;;;5031982;28;20053;-53
2023/06/03 04:43:24;;;;;;;20.67;6.95;;;10.00;99.90;;;;;;5033633;28;20037;-57
2023/06/03 04:45:54;;;;;;;19.02;6.63;;;10.10;99.90;;;;;;5033290;28;20049;-53
2023/06/03 04:48:25;;;;;;;17.85;6.65;;;10.10;99.90;;;;;;5034890;28;20056;-53
2023/06/03 04:50:52;;;;;;;22.25;7.78;;;10.10;99.90;;;;;;5035983;28;20080;-51
2023/06/03 04:53:19;;;;;;;23.75;7.25;;;10.10;99.90;;;;;;5036303;28;20396;-53
2023/06/03 04:55:46;;;;;;;25.80;8.25;;;10.10;99.90;;;;;;5035874;28;20064;-54
2023/06/03 04:58:18;;;;;;;25.40;7.60;;;10.10;99.90;;;;;;5037276;28;20037;-49
2023/06/03 05:00:48;;;;;;;22.85;7.18;;;10.10;99.90;;;;;;5036118;28;20396;-52
2023/06/03 05:03:17;;;;;;;20.73;7.43;;;10.20;99.90;;;;;;5035833;28;20080;-55
2023/06/03 05:05:44;;;;;;;24.35;7.10;;;10.10;99.90;;;;;;5036715;28;20067;-52
2023/06/03 05:08:15;;;;;;;25.65;7.68;;;10.10;99.90;;;;;;5036081;28;20048;-53
2023/06/03 05:10:42;;;;;;;24.88;7.75;;;10.10;99.90;;;;;;5036074;28;20110;-56
2023/06/03 05:13:10;;;;;;;21.20;8.38;;;10.10;99.90;;;;;;5035455;28;20374;-53
2023/06/03 05:15:37;;;;;;;18.27;7.47;;;10.10;99.90;;;;;;5035291;28;20052;-54
2023/06/03 05:18:04;;;;;;;25.75;8.15;;;10.20;99.90;;;;;;5035834;28;20492;-55
2023/06/03 05:20:32;;;;;;;22.25;8.55;;;10.30;99.90;;;;;;5035302;28;20048;-58
2023/06/03 05:22:59;;;;;;;25.50;7.72;;;10.30;99.90;;;;;;5035297;28;20504;-55
2023/06/03 05:25:26;;;;;;;22.55;7.63;;;10.40;99.90;;;;;;5035033;28;20065;-49
2023/06/03 05:27:53;;;;;;;23.60;8.90;;;10.50;99.90;;;;;;5035067;28;20048;-53
2023/06/03 05:30:33;;;;;;;23.50;8.48;;;10.50;99.90;;;;;;5035740;28;20045;-52
2023/06/03 05:33:01;;;;;;;23.50;9.63;;;10.50;99.90;;;;;;5034980;28;20129;-54
2023/06/03 05:35:28;;;;;;;23.70;9.10;;;10.50;99.90;;;;;;5035266;28;20049;-55
2023/06/03 05:37:55;;;;;;;25.00;8.18;;;10.50;99.90;;;;;;5035112;28;20037;-53
2023/06/03 05:40:22;;;;;;;21.83;8.18;;;10.50;99.90;;;;;;5036392;28;20456;-53
2023/06/03 05:42:49;;;;;;;29.48;9.05;;;10.50;99.90;;;;;;5036317;28;20037;-52
2023/06/03 05:45:18;;;;;;;22.50;7.65;;;10.50;99.90;;;;;;5034932;28;20489;-54
2023/06/03 05:47:45;;;;;;;26.33;9.25;;;10.60;99.90;;;;;;5034768;28;20041;-52
2023/06/03 05:50:12;;;;;;;23.25;8.02;;;10.60;99.90;;;;;;5036069;28;20041;-52
2023/06/03 05:52:39;;;;;;;26.10;9.02;;;10.70;99.90;;;;;;5034630;28;20037;-56
2023/06/03 05:55:06;;;;;;;21.60;9.07;;;10.60;99.90;;;;;;5034873;28;20083;-52
2023/06/03 05:57:32;;;;;;;21.15;8.00;;;10.70;99.90;;;;;;5034880;28;20048;-55
2023/06/03 05:59:59;;;;;;;22.80;8.65;;;10.70;99.90;;;;;;5034567;28;20477;-54
2023/06/03 06:02:28;;;;;;;23.25;8.88;;;10.80;99.90;;;;;;5034723;28;20046;-54
2023/06/03 06:04:56;;;;;;;25.42;8.73;;;10.80;99.90;;;;;;5036089;28;20492;-54
2023/06/03 06:07:23;;;;;;;23.90;8.43;;;10.80;99.90;;;;;;5035997;28;20192;-56
2023/06/03 06:09:49;;;;;;;15.77;8.10;;;10.90;99.90;;;;;;5035853;28;20037;-54
2023/06/03 06:12:16;;;;;;;25.90;9.15;;;10.90;99.90;;;;;;5034912;28;20041;-52
2023/06/03 06:14:44;;;;;;;19.88;9.32;;;11.00;99.90;;;;;;5034826;28;20388;-49
2023/06/03 06:17:11;;;;;;;23.60;8.73;;;11.00;99.90;;;;;;5034244;28;20042;-56
2023/06/03 06:19:38;;;;;;;21.05;8.65;;;11.00;99.90;;;;;;5035554;28;20052;-52
2023/06/03 06:22:05;;;;;;;21.17;8.80;;;11.00;99.90;;;;;;5034016;28;20060;-53
2023/06/03 06:24:33;;;;;;;22.38;8.65;;;11.10;99.90;;;;;;5033733;28;20056;-53
2023/06/03 06:27:02;;;;;;;23.35;8.50;;;11.20;99.90;;;;;;5034079;28;20095;-54
2023/06/03 06:29:29;;;;;;;22.67;9.20;;;11.20;99.90;;;;;;5034331;28;20552;-53
2023/06/03 06:31:56;;;;;;;17.20;8.05;;;11.30;99.90;;;;;;5033913;28;20476;-52
2023/06/03 06:34:23;;;;;;;20.00;8.88;;;11.30;99.90;;;;;;5034038;28;20040;-52
2023/06/03 06:36:52;;;;;;;22.20;8.50;;;11.40;99.90;;;;;;5033757;28;20136;-54
2023/06/03 06:39:27;;;;;;;22.02;8.50;;;11.40;99.90;;;;;;5034162;28;20503;-52
2023/06/03 06:41:53;;;;;;;21.75;8.80;;;11.40;99.90;;;;;;5033645;28;20068;-56
2023/06/03 06:44:21;;;;;;;18.33;8.38;;;11.50;99.90;;;;;;5033880;28;20136;-53
2023/06/03 06:46:48;;;;;;;23.70;8.60;;;11.50;99.90;;;;;;5035034;28;20049;-55
2023/06/03 06:49:15;;;;;;;15.77;8.27;;;11.50;99.90;;;;;;5033962;28;20042;-52
2023/06/03 06:51:44;;;;;;;15.70;7.72;;;11.50;99.90;;;;;;5034231;28;20365;-51
2023/06/03 06:54:11;;;;;;;16.67;8.38;;;11.50;99.90;;;;;;5017342;28;20129;-55
2023/06/03 06:56:37;;;;;;;20.92;8.02;;;11.60;99.90;;;;;;5033338;28;20481;-53
2023/06/03 06:59:04;;;;;;;19.48;7.85;;;11.60;99.90;;;;;;5034927;28;20049;-55
2023/06/03 07:01:33;;;;;;;21.60;8.25;;;11.70;99.90;;;;;;5033610;28;20488;-51
2023/06/03 07:04:01;;;;;;;20.38;7.95;;;11.70;99.90;;;;;;5033561;28;20053;-52
2023/06/03 07:06:28;;;;;;;16.02;7.15;;;11.90;99.90;;;;;;5033119;28;20046;-48
2023/06/03 07:09:00;;;;;;;20.58;7.40;;;11.90;99.90;;;;;;5033440;28;20034;-50
2023/06/03 07:11:28;;;;;;;25.40;7.68;;;11.90;99.90;;;;;;5032556;28;20041;-53
2023/06/03 07:13:58;;;;;;;21.60;7.85;;;11.90;99.90;;;;;;5033441;28;20043;-50
2023/06/03 07:16:25;;;;;;;17.17;7.03;;;11.90;99.90;;;;;;5033356;28;20065;-51
2023/06/03 07:18:53;;;;;;;22.45;7.38;;;12.00;99.90;;;;;;5034381;28;20045;-49
2023/06/03 07:21:27;;;;;;;22.05;7.47;;;12.00;99.90;;;;;;5032840;28;20045;-52
2023/06/03 07:23:58;;;;;;;16.25;7.07;;;12.00;99.90;;;;;;5032955;28;20147;-52
2023/06/03 07:26:31;;;;;;;21.90;7.10;;;12.10;99.90;;;;;;5032877;28;20132;-49
2023/06/03 07:28:59;;;;;;;22.23;7.00;;;12.20;99.90;;;;;;5032718;28;20140;-54
2023/06/03 07:31:26;;;;;;;15.32;6.80;;;12.30;99.90;;;;;;5033264;28;20037;-55
2023/06/03 07:33:53;;;;;;;16.73;6.82;;;12.40;99.90;;;;;;5033383;28;20049;-52
2023/06/03 07:36:31;;;;;;;18.25;6.53;;;12.40;99.90;;;;;;5032999;28;20041;-52
2023/06/03 07:38:58;;;;;;;18.42;7.25;;;12.40;99.90;;;;;;5034107;28;20052;-52
2023/06/03 07:41:25;;;;;;;26.50;6.90;;;12.50;99.90;;;;;;5032547;28;20057;-52
2023/06/03 07:43:52;;;;;;;21.10;6.80;;;12.50;99.90;;;;;;5032738;28;20050;-54
2023/06/03 07:46:19;;;;;;;17.98;6.28;;;12.60;99.90;;;;;;5033400;28;20572;-56
2023/06/03 07:48:45;;;;;;;16.35;6.53;;;12.80;99.90;;;;;;5033592;28;20417;-55
2023/06/03 07:51:12;;;;;;;21.67;6.22;;;12.80;99.90;;;;;;5033720;28;20407;-51
2023/06/03 07:53:39;;;;;;;18.08;6.30;;;12.80;99.90;;;;;;5033796;28;20369;-51
2023/06/03 07:56:06;;;;;;;19.60;6.72;;;12.80;99.90;;;;;;5033983;28;20045;-53
2023/06/03 07:58:33;;;;;;;16.98;6.28;;;12.80;99.90;;;;;;5033880;28;20041;-56
2023/06/03 08:00:59;;;;;;;13.52;5.78;;;12.80;99.90;;;;;;5032412;28;20041;-58
2023/06/03 08:03:26;;;;;;;18.05;6.07;;;13.00;99.90;;;;;;5033602;28;20049;-56
2023/06/03 08:05:53;;;;;;;16.10;6.15;;;13.10;99.90;;;;;;5033715;28;20037;-53
2023/06/03 08:08:21;;;;;;;17.38;7.13;;;13.10;99.90;;;;;;5033649;28;20073;-54
2023/06/03 08:10:47;;;;;;;17.58;5.70;;;13.20;99.90;;;;;;5033860;28;20056;-52
2023/06/03 08:13:16;;;;;;;17.23;7.20;;;13.20;99.90;;;;;;5033569;28;20057;-51
2023/06/03 08:15:43;;;;;;;14.75;6.65;;;13.30;99.90;;;;;;5033328;28;20042;-51
2023/06/03 08:18:09;;;;;;;21.52;6.95;;;13.30;99.90;;;;;;5033595;28;20045;-56
2023/06/03 08:20:36;;;;;;;18.67;5.95;;;13.40;99.90;;;;;;5033567;28;20111;-54
2023/06/03 08:23:03;;;;;;;13.82;5.95;;;13.40;99.90;;;;;;5037555;28;20067;-52
2023/06/03 08:25:30;;;;;;;17.15;5.82;;;13.50;99.90;;;;;;5037340;28;20049;-51
2023/06/03 08:27:57;;;;;;;15.88;6.15;;;13.80;99.90;;;;;;5038098;28;20055;-54
2023/06/03 08:30:24;;;;;;;16.63;5.55;;;13.90;99.90;;;;;;5037974;28;20121;-53
2023/06/03 08:32:52;;;;;;;17.15;6.30;;;13.90;99.90;;;;;;5036281;28;20048;-52
2023/06/03 08:35:22;;;;;;;17.20;5.97;;;13.90;99.90;;;;;;5037906;28;20045;-56
2023/06/03 08:37:48;;;;;;;18.65;6.40;;;14.00;99.90;;;;;;5037693;28;20037;-54
2023/06/03 08:40:16;;;;;;;17.55;6.13;;;14.00;99.90;;;;;;5037846;28;20103;-57
2023/06/03 08:42:43;;;;;;;17.40;6.28;;;14.10;99.90;;;;;;5037558;28;20050;-54
2023/06/03 08:45:10;;;;;;;17.58;6.13;;;14.30;99.90;;;;;;5037533;28;20037;-54
2023/06/03 08:47:37;;;;;;;20.75;6.00;;;14.40;99.90;;;;;;5037233;28;20469;-55
2023/06/03 08:50:03;;;;;;;17.25;6.03;;;14.50;99.90;;;;;;5037411;28;20120;-54
2023/06/03 08:52:30;;;;;;;17.95;6.00;;;14.60;99.90;;;;;;5037566;28;20076;-57
2023/06/03 08:54:58;;;;;;;15.95;6.13;;;14.70;99.90;;;;;;5037542;28;20113;-56
2023/06/03 08:57:25;;;;;;;17.25;5.93;;;14.70;99.90;;;;;;5035803;28;20049;-56
2023/06/03 08:59:52;;;;;;;16.65;6.25;;;14.80;99.90;;;;;;5036867;28;20042;-56
2023/06/03 09:02:19;;;;;;;15.35;6.22;;;15.00;99.90;;;;;;5036896;28;20041;-52
2023/06/03 09:04:46;;;;;;;16.02;6.43;;;15.00;99.90;;;;;;5037138;28;20037;-54
2023/06/03 09:07:13;;;;;;;16.10;6.00;;;15.10;99.90;;;;;;5036838;28;20397;-57
2023/06/03 09:09:40;;;;;;;18.08;5.50;;;15.20;99.90;;;;;;5036945;28;20487;-54
2023/06/03 09:12:06;;;;;;;17.17;5.22;;;15.40;99.90;;;;;;5036897;28;20062;-54
2023/06/03 09:14:33;;;;;;;15.65;5.03;;;15.60;99.90;;;;;;5036855;28;20064;-56
2023/06/03 09:17:00;;;;;;;16.50;5.45;;;15.70;99.90;;;;;;5035629;28;20153;-58
2023/06/03 09:19:27;;;;;;;128.27;11.45;;;15.90;99.90;;;;;;5035312;28;20041;-58
2023/06/03 09:21:54;;;;;;;17.77;5.47;;;16.00;99.90;;;;;;5036587;28;20042;-56
2023/06/03 09:24:20;;;;;;;44.38;6.55;;;16.10;99.90;;;;;;5036122;28;20053;-55
2023/06/03 09:26:47;;;;;;;17.10;5.00;;;16.00;99.90;;;;;;5036231;28;20128;-53
2023/06/03 09:29:14;;;;;;;15.32;5.03;;;15.80;99.90;;;;;;5036394;28;20045;-53
2023/06/03 09:31:41;;;;;;;26.10;5.93;;;15.70;99.90;;;;;;5036488;28;20037;-55
2023/06/03 09:34:08;;;;;;;14.48;4.93;;;15.80;99.90;;;;;;5035587;28;20037;-53
2023/06/03 09:36:35;;;;;;;28.88;5.20;;;15.80;99.90;;;;;;5036293;28;20107;-52
2023/06/03 09:39:02;;;;;;;14.45;4.82;;;15.90;99.90;;;;;;5036692;28;20041;-58
2023/06/03 09:41:29;;;;;;;13.43;5.13;;;15.70;99.90;;;;;;5036654;28;20476;-56
2023/06/03 09:43:56;;;;;;;14.80;4.85;;;15.60;99.90;;;;;;5036463;28;20038;-55
2023/06/03 09:46:22;;;;;;;343.52;21.55;;;15.60;99.90;;;;;;5036137;28;20049;-54
2023/06/03 09:48:49;;;;;;;17.92;5.03;;;15.50;99.90;;;;;;5036174;28;20459;-52
2023/06/03 09:51:16;;;;;;;21.20;4.88;;;15.50;99.90;;;;;;5036485;28;20121;-56
2023/06/03 09:53:43;;;;;;;15.98;5.80;;;15.50;99.90;;;;;;5035971;28;20037;-56
2023/06/03 09:56:10;;;;;;;15.38;4.95;;;15.50;99.90;;;;;;5036344;28;20129;-54
2023/06/03 09:58:37;;;;;;;16.02;4.93;;;15.50;99.90;;;;;;5036200;28;20049;-58
2023/06/03 10:01:03;;;;;;;16.67;4.80;;;15.60;99.90;;;;;;5036002;28;20049;-56
2023/06/03 10:03:35;;;;;;;14.90;4.63;;;15.80;99.90;;;;;;5035921;28;20049;-53
2023/06/03 10:06:02;;;;;;;15.07;4.63;;;15.80;99.90;;;;;;5035787;28;20131;-56
2023/06/03 10:08:29;;;;;;;17.10;4.95;;;15.90;99.90;;;;;;5036173;28;20059;-56
2023/06/03 10:10:56;;;;;;;13.10;4.80;;;16.00;99.90;;;;;;5036000;28;20093;-54
2023/06/03 10:13:23;;;;;;;14.55;4.28;;;16.20;99.90;;;;;;5034747;28;20041;-53
2023/06/03 10:15:52;;;;;;;11.07;3.88;;;16.40;99.90;;;;;;5035695;28;20049;-57
2023/06/03 10:18:18;;;;;;;14.45;4.65;;;16.50;99.90;;;;;;5036223;28;20042;-57
2023/06/03 10:20:45;;;;;;;14.68;5.07;;;16.50;99.90;;;;;;5035728;28;20443;-53
2023/06/03 10:23:12;;;;;;;17.77;4.72;;;16.60;99.90;;;;;;5035554;28;20132;-54
2023/06/03 10:25:39;;;;;;;12.77;4.47;;;16.60;99.90;;;;;;5035004;28;20061;-53
2023/06/03 10:28:07;;;;;;;14.52;4.72;;;16.60;99.90;;;;;;5035624;28;20506;-53
2023/06/03 10:30:33;;;;;;;15.57;4.78;;;16.70;99.90;;;;;;5035240;28;20042;-54
2023/06/03 10:33:04;;;;;;;12.85;4.25;;;17.00;99.90;;;;;;5035080;28;20043;-55
2023/06/03 10:35:32;;;;;;;13.88;4.32;;;17.10;99.70;;;;;;5035265;28;20057;-57
2023/06/03 10:37:59;;;;;;;14.48;4.38;;;17.20;99.90;;;;;;5034086;28;20049;-56
2023/06/03 10:40:26;;;;;;;12.73;4.47;;;17.40;99.80;;;;;;5034934;28;20052;-57
2023/06/03 10:42:53;;;;;;;16.13;5.00;;;17.40;99.50;;;;;;5035054;28;20048;-54
2023/06/03 10:45:20;;;;;;;14.85;4.57;;;17.40;99.50;;;;;;5033861;28;20103;-53
2023/06/03 10:47:46;;;;;;;11.40;4.13;;;17.50;99.50;;;;;;5034978;28;20072;-55
2023/06/03 10:50:13;;;;;;;12.10;4.60;;;17.50;99.30;;;;;;5034802;28;20045;-54
2023/06/03 10:52:40;;;;;;;10.52;4.45;;;17.70;99.40;;;;;;5033819;28;20363;-55
2023/06/03 10:55:07;;;;;;;11.50;4.55;;;17.80;99.20;;;;;;5035043;28;20037;-54
2023/06/03 10:57:34;;;;;;;11.23;3.72;;;17.90;98.90;;;;;;5034574;28;20041;-56
2023/06/03 11:00:01;;;;;;;13.93;4.82;;;18.00;98.90;;;;;;5034646;28;20044;-53
2023/06/03 11:02:27;;;;;;;16.85;4.70;;;18.20;98.80;;;;;;5034632;28;20044;-57
2023/06/03 11:04:55;;;;;;;11.48;4.38;;;18.30;98.70;;;;;;5035057;28;20041;-56
2023/06/03 11:07:22;;;;;;;13.82;4.53;;;18.40;98.30;;;;;;5034756;28;20050;-58
2023/06/03 11:09:49;;;;;;;12.70;4.20;;;18.40;98.40;;;;;;5034780;28;20477;-56
2023/06/03 11:12:16;;;;;;;15.30;4.40;;;18.50;98.50;;;;;;5034456;28;20041;-54
2023/06/03 11:14:48;;;;;;;13.40;4.40;;;18.80;98.50;;;;;;5034867;28;20041;-56
2023/06/03 11:17:15;;;;;;;15.77;4.55;;;18.80;98.00;;;;;;5034247;28;20037;-56
2023/06/03 11:19:42;;;;;;;15.90;4.85;;;19.00;98.00;;;;;;5034737;28;20068;-55
2023/06/03 11:22:09;;;;;;;15.23;4.00;;;19.00;97.70;;;;;;5034205;28;20103;-54
2023/06/03 11:24:35;;;;;;;13.07;4.10;;;18.90;98.00;;;;;;5034114;28;20056;-53
2023/06/03 11:27:02;;;;;;;11.68;4.07;;;18.90;97.70;;;;;;5034021;28;20053;-52
2023/06/03 11:29:29;;;;;;;13.82;4.47;;;18.90;97.90;;;;;;5033187;28;20424;-57
2023/06/03 11:31:56;;;;;;;12.48;3.83;;;18.80;97.70;;;;;;5034508;28;20124;-54
2023/06/03 11:34:23;;;;;;;14.07;4.10;;;18.90;97.70;;;;;;5034379;28;20041;-54
2023/06/03 11:36:52;;;;;;;8.68;3.47;;;19.10;97.80;;;;;;5033809;28;20049;-54
2023/06/03 11:39:19;;;;;;;15.40;3.88;;;19.40;97.20;;;;;;5033997;28;20404;-53
2023/06/03 11:41:46;;;;;;;12.80;4.20;;;19.50;97.10;;;;;;5033839;28;20060;-54
2023/06/03 11:44:13;;;;;;;15.32;5.15;;;19.40;96.80;;;;;;5034175;28;20049;-56
2023/06/03 11:46:54;;;;;;;14.68;3.95;;;19.40;97.00;;;;;;5033248;28;20049;-52
2023/06/03 11:49:23;;;;;;;10.77;3.92;;;19.60;97.20;;;;;;5034198;28;20060;-58
2023/06/03 11:51:51;;;;;;;9.77;3.45;;;19.80;96.50;;;;;;5033852;28;20041;-52
2023/06/03 11:54:20;;;;;;;10.68;3.55;;;20.00;95.80;;;;;;5034256;28;20393;-55
2023/06/03 11:56:47;;;;;;;13.82;3.40;;;20.30;96.10;;;;;;5033526;28;20037;-55
2023/06/03 11:59:13;;;;;;;12.07;3.55;;;20.50;95.50;;;;;;5034122;28;20044;-56
2023/06/03 12:01:40;;;;;;;10.70;3.55;;;20.50;95.00;;;;;;5034045;28;20049;-57
2023/06/03 12:04:07;;;;;;;12.88;3.42;;;20.40;95.30;;;;;;5032668;28;20047;-53
2023/06/03 12:06:34;;;;;;;8.40;3.05;;;20.30;95.10;;;;;;5033328;28;20049;-52
2023/06/03 12:09:01;;;;;;;8.57;2.80;;;20.20;94.80;;;;;;5033460;28;20120;-53
2023/06/03 12:11:28;;;;;;;13.13;3.78;;;20.10;95.20;;;;;;5033390;28;20042;-53
2023/06/03 12:13:55;;;;;;;9.38;3.08;;;20.10;95.30;;;;;;5032280;28;20042;-57
2023/06/03 12:16:22;;;;;;;9.10;3.38;;;20.00;95.30;;;;;;5033681;28;20128;-56
2023/06/03 12:18:48;;;;;;;8.60;3.63;;;19.90;95.40;;;;;;5032510;28;20499;-53
2023/06/03 12:21:15;;;;;;;9.13;3.05;;;19.80;95.00;;;;;;5034066;28;20037;-52
2023/06/03 12:23:42;;;;;;;7.40;3.35;;;19.80;94.90;;;;;;5033689;28;20048;-54
2023/06/03 12:26:09;;;;;;;8.65;3.30;;;19.80;94.80;;;;;;5032994;28;20059;-51
2023/06/03 12:28:36;;;;;;;9.82;3.65;;;19.80;94.70;;;;;;5032125;28;20050;-49
2023/06/03 12:31:02;;;;;;;8.35;3.20;;;19.90;94.70;;;;;;5032323;28;20440;-57
2023/06/03 12:33:30;;;;;;;10.02;3.33;;;20.10;94.60;;;;;;5033936;28;20049;-54
2023/06/03 12:35:56;;;;;;;9.00;3.30;;;20.20;94.60;;;;;;5033339;28;20042;-55
2023/06/03 12:38:24;;;;;;;8.63;3.50;;;20.40;94.80;;;;;;5033284;28;20045;-56
2023/06/03 12:40:55;;;;;;;8.07;3.33;;;20.50;94.30;;;;;;5033906;28;20069;-53